Time;durP1;ratioP1;P1;durP2;ratioP2;P2;SDS_P1;SDS_P2;PMS_P1;PMS_P2;Temp;Humidity;BMP_temperature;BMP_pressure;BME280_temperature;BME280_humidity;BME280_pressure;Samples;Min_cycle;Max_cycle;Signal;HPM_P1;HPM_P2
2023/03/28 00:02:08;;;;;;;2.45;0.60;;;18.50;1.00;;;;;;5012031;28;20052;-35
2023/03/28 00:04:36;;;;;;;2.72;0.43;;;18.40;1.00;;;;;;5011669;28;20050;-34
2023/03/28 00:07:04;;;;;;;1.98;0.50;;;18.40;1.00;;;;;;5012183;28;20054;-35
2023/03/28 00:09:31;;;;;;;2.85;0.77;;;18.40;1.00;;;;;;5011947;28;20046;-35
2023/03/28 00:11:58;;;;;;;1.05;0.45;;;18.40;1.00;;;;;;5011979;28;20132;-34
2023/03/28 00:14:25;;;;;;;1.50;0.30;;;18.30;1.00;;;;;;5011641;28;20081;-34
2023/03/28 00:16:52;;;;;;;3.88;0.80;;;18.30;1.00;;;;;;5012092;28;20599;-35
2023/03/28 00:19:19;;;;;;;2.67;0.77;;;18.30;1.00;;;;;;5011893;28;20104;-35
2023/03/28 00:21:48;;;;;;;4.13;0.75;;;18.30;1.00;;;;;;5011973;28;20441;-35
2023/03/28 00:24:20;;;;;;;1.88;0.55;;;18.30;1.00;;;;;;5011059;28;20065;-34
2023/03/28 00:26:53;;;;;;;3.50;0.52;;;18.20;1.00;;;;;;5015513;28;20046;-35
2023/03/28 00:29:21;;;;;;;4.53;1.33;;;18.20;1.00;;;;;;4998220;28;20070;-34
2023/03/28 00:31:49;;;;;;;1.75;0.50;;;18.20;1.00;;;;;;4998063;28;20077;-35
2023/03/28 00:34:16;;;;;;;3.00;0.30;;;18.10;1.00;;;;;;5014944;28;20061;-34
2023/03/28 00:36:43;;;;;;;4.43;0.63;;;18.10;1.00;;;;;;4998024;28;20509;-34
2023/03/28 00:39:10;;;;;;;1.15;0.28;;;18.10;1.00;;;;;;5015667;28;20049;-34
2023/03/28 00:41:41;;;;;;;1.20;0.30;;;18.10;1.00;;;;;;4997918;28;20494;-35
2023/03/28 00:44:56;;;;;;;1.00;0.50;;;18.10;1.00;;;;;;4997156;28;20065;-34
2023/03/28 00:47:37;;;;;;;4.20;0.80;;;18.10;1.00;;;;;;4989949;28;20053;-34
2023/03/28 00:50:18;;;;;;;2.03;0.63;;;18.00;1.00;;;;;;4997827;28;20505;-34
2023/03/28 00:52:54;;;;;;;1.65;0.50;;;18.00;1.00;;;;;;4996900;28;20046;-35
2023/03/28 00:55:28;;;;;;;2.08;0.43;;;18.00;1.00;;;;;;4997649;28;20096;-35
2023/03/28 00:57:55;;;;;;;3.03;0.60;;;18.00;1.00;;;;;;4997799;28;20477;-34
2023/03/28 01:00:23;;;;;;;1.05;0.45;;;17.90;1.00;;;;;;4997538;28;20560;-34
2023/03/28 01:02:53;;;;;;;3.05;0.43;;;17.90;1.00;;;;;;5014487;28;20045;-35
2023/03/28 01:05:30;;;;;;;2.00;0.30;;;17.90;1.00;;;;;;5015239;28;20042;-34
2023/03/28 01:08:22;;;;;;;1.92;0.50;;;17.90;1.00;;;;;;4997416;28;20133;-34
2023/03/28 01:10:49;;;;;;;3.28;0.60;;;17.90;1.00;;;;;;5015048;28;20049;-34
2023/03/28 01:13:19;;;;;;;1.63;0.38;;;17.80;1.00;;;;;;4996670;28;20050;-34
2023/03/28 01:15:52;;;;;;;3.60;0.45;;;17.80;1.00;;;;;;4997482;28;20418;-35
2023/03/28 01:18:21;;;;;;;2.17;0.45;;;17.80;1.00;;;;;;4997225;28;20057;-34
2023/03/28 01:21:27;;;;;;;1.52;0.57;;;17.80;1.00;;;;;;4997295;28;20042;-35
2023/03/28 01:24:03;;;;;;;5.43;0.60;;;17.80;1.00;;;;;;5014067;28;20064;-34
2023/03/28 01:26:46;;;;;;;3.55;0.65;;;17.70;1.00;;;;;;4997026;28;20046;-35
2023/03/28 01:29:19;;;;;;;3.45;0.60;;;17.70;1.00;;;;;;4997284;28;20143;-34
2023/03/28 01:32:54;;;;;;;1.75;0.40;;;17.70;1.00;;;;;;4997065;28;20061;-35
2023/03/28 01:35:49;;;;;;;2.70;0.32;;;17.60;1.00;;;;;;4951691;29;20381;-35
2023/03/28 01:38:55;;;;;;;4.00;0.25;;;17.60;1.00;;;;;;4936857;29;20051;-34
2023/03/28 01:41:58;;;;;;;2.13;0.38;;;17.60;1.00;;;;;;4992663;28;20050;-34
2023/03/28 01:44:48;;;;;;;2.25;0.45;;;17.50;1.00;;;;;;4989865;28;20061;-34
2023/03/28 01:47:33;;;;;;;2.05;0.52;;;17.50;1.00;;;;;;5014423;28;20038;-35
2023/03/28 01:50:11;;;;;;;4.38;0.85;;;17.50;1.00;;;;;;4996763;28;20414;-34
2023/03/28 01:52:52;;;;;;;1.67;0.50;;;17.50;1.00;;;;;;4995710;28;20046;-34
2023/03/28 01:55:39;;;;;;;3.55;0.52;;;17.40;1.00;;;;;;4996663;28;20045;-34
2023/03/28 01:58:18;;;;;;;3.10;0.45;;;17.40;1.00;;;;;;4996620;28;20069;-34
2023/03/28 02:01:12;;;;;;;1.55;0.40;;;17.40;1.00;;;;;;4996548;28;20042;-34
2023/03/28 02:03:45;;;;;;;2.03;0.30;;;17.40;1.00;;;;;;4995634;28;20045;-34
2023/03/28 02:06:37;;;;;;;2.22;0.60;;;17.40;1.00;;;;;;4996435;28;20057;-34
2023/03/28 02:09:10;;;;;;;1.08;0.30;;;17.30;1.00;;;;;;4996418;28;20050;-34
2023/03/28 02:12:04;;;;;;;3.97;0.45;;;17.30;1.00;;;;;;5013576;28;20060;-34
2023/03/28 02:14:51;;;;;;;1.58;0.43;;;17.30;1.00;;;;;;5013825;28;20049;-34
2023/03/28 02:17:41;;;;;;;3.03;0.55;;;17.30;1.00;;;;;;4996238;28;20049;-34
2023/03/28 02:20:30;;;;;;;2.15;0.30;;;17.30;1.00;;;;;;5013748;28;20112;-34
2023/03/28 02:23:06;;;;;;;2.20;0.63;;;17.20;1.00;;;;;;5012890;28;20045;-34
2023/03/28 02:25:49;;;;;;;1.88;0.77;;;17.20;1.00;;;;;;5013742;28;20034;-34
2023/03/28 02:28:44;;;;;;;2.53;0.28;;;17.20;1.00;;;;;;4990290;28;20054;-34
2023/03/28 02:31:27;;;;;;;1.80;0.30;;;17.20;1.00;;;;;;4995880;28;20541;-34
2023/03/28 02:33:55;;;;;;;2.15;0.52;;;17.10;1.00;;;;;;5012810;28;20458;-34
2023/03/28 02:36:31;;;;;;;1.17;0.45;;;17.10;1.00;;;;;;5012221;28;20090;-34
2023/03/28 02:39:35;;;;;;;1.77;0.47;;;17.10;1.00;;;;;;5013539;28;20413;-34
2023/03/28 02:42:07;;;;;;;3.55;0.45;;;17.10;1.00;;;;;;5013427;28;20134;-34
2023/03/28 02:44:45;;;;;;;2.30;0.50;;;17.00;1.00;;;;;;4995240;28;20401;-34
2023/03/28 02:47:49;;;;;;;2.95;0.38;;;17.00;1.00;;;;;;4995743;28;20069;-34
2023/03/28 02:50:26;;;;;;;1.67;1.00;;;17.00;1.00;;;;;;4995659;28;20069;-34
2023/03/28 02:53:02;;;;;;;2.08;0.65;;;17.00;1.00;;;;;;4994719;28;20461;-34
2023/03/28 02:55:45;;;;;;;2.35;0.32;;;16.90;1.00;;;;;;4995500;28;20048;-34
2023/03/28 02:58:41;;;;;;;1.30;0.32;;;16.90;1.00;;;;;;5012914;28;20052;-34
2023/03/28 03:01:09;;;;;;;1.15;0.40;;;16.90;1.00;;;;;;4995465;28;20050;-34
2023/03/28 03:03:36;;;;;;;0.95;0.20;;;16.90;1.00;;;;;;4994597;28;20144;-34
2023/03/28 03:06:04;;;;;;;2.45;0.20;;;16.90;1.00;;;;;;4995291;28;20521;-34
2023/03/28 03:08:31;;;;;;;1.95;0.47;;;16.80;1.00;;;;;;5013174;28;20050;-34
2023/03/28 03:10:58;;;;;;;3.03;0.35;;;16.90;1.00;;;;;;5012651;28;20410;-34
2023/03/28 03:13:25;;;;;;;2.47;0.50;;;16.80;1.00;;;;;;5027238;28;20069;-34
2023/03/28 03:15:54;;;;;;;1.35;0.40;;;16.80;1.00;;;;;;4995184;28;20038;-34
2023/03/28 03:18:23;;;;;;;2.17;0.22;;;16.80;1.00;;;;;;4995485;28;20077;-34
2023/03/28 03:20:49;;;;;;;4.40;0.52;;;16.80;1.00;;;;;;4994994;28;20052;-34
2023/03/28 03:23:17;;;;;;;0.85;0.40;;;16.70;1.00;;;;;;4994163;28;20100;-34
2023/03/28 03:25:44;;;;;;;1.10;0.28;;;16.70;1.00;;;;;;5012608;28;20056;-34
2023/03/28 03:28:31;;;;;;;2.67;0.55;;;16.70;1.00;;;;;;5001994;28;20141;-34
2023/03/28 03:31:01;;;;;;;1.30;0.30;;;16.70;1.00;;;;;;4994826;28;20498;-34
2023/03/28 03:33:36;;;;;;;1.77;0.38;;;16.70;1.00;;;;;;5011837;28;20513;-34
2023/03/28 03:36:05;;;;;;;1.45;0.50;;;16.60;1.00;;;;;;5027458;28;20038;-34
2023/03/28 03:38:33;;;;;;;0.50;0.20;;;16.60;1.00;;;;;;4994894;28;20057;-34
2023/03/28 03:41:01;;;;;;;1.60;0.55;;;16.60;1.00;;;;;;5027603;28;20042;-34
2023/03/28 03:43:29;;;;;;;1.38;0.40;;;16.60;1.00;;;;;;4993866;28;20564;-34
2023/03/28 03:45:56;;;;;;;2.47;0.32;;;16.60;1.00;;;;;;4994747;28;20596;-34
2023/03/28 03:48:25;;;;;;;2.50;0.57;;;16.60;1.00;;;;;;5027406;28;20057;-34
2023/03/28 03:50:56;;;;;;;2.10;0.47;;;16.60;1.00;;;;;;4994640;28;20186;-34
2023/03/28 03:53:23;;;;;;;2.50;0.45;;;16.60;1.00;;;;;;4993669;28;20038;-34
2023/03/28 03:56:02;;;;;;;1.13;0.20;;;16.60;1.00;;;;;;4994575;28;20046;-34
2023/03/28 03:58:45;;;;;;;0.88;0.40;;;16.50;1.00;;;;;;4994777;28;20052;-34
2023/03/28 04:01:12;;;;;;;0.93;0.40;;;16.50;1.00;;;;;;4993701;28;20049;-34
2023/03/28 04:03:41;;;;;;;0.82;0.28;;;16.50;1.00;;;;;;4993737;28;20516;-34
2023/03/28 04:06:09;;;;;;;1.85;0.30;;;16.50;1.00;;;;;;4994404;28;20042;-34
2023/03/28 04:08:36;;;;;;;0.38;0.15;;;16.50;1.00;;;;;;5012181;28;20049;-34
2023/03/28 04:11:04;;;;;;;0.80;0.38;;;16.40;1.00;;;;;;4994242;28;20395;-34
2023/03/28 04:13:36;;;;;;;6.60;0.17;;;16.40;1.00;;;;;;4993705;28;20069;-34
2023/03/28 04:16:06;;;;;;;2.22;0.60;;;16.40;1.00;;;;;;4994460;28;20494;-34
2023/03/28 04:18:39;;;;;;;0.40;0.10;;;16.40;1.00;;;;;;4994378;28;20046;-34
2023/03/28 04:21:08;;;;;;;4.15;1.17;;;16.40;1.00;;;;;;4994288;28;20046;-34
2023/03/28 04:23:42;;;;;;;4.53;0.22;;;16.30;1.00;;;;;;4993510;28;20074;-34
2023/03/28 04:26:24;;;;;;;23.13;1.30;;;16.30;1.00;;;;;;4994253;28;20050;-35
2023/03/28 04:29:11;;;;;;;4.75;0.55;;;16.20;1.00;;;;;;5027077;28;20464;-34
2023/03/28 04:31:49;;;;;;;1.33;0.40;;;16.20;1.00;;;;;;4994200;28;20056;-35
2023/03/28 04:34:36;;;;;;;0.70;0.22;;;16.20;1.00;;;;;;5011446;28;20520;-34
2023/03/28 04:37:10;;;;;;;2.47;0.30;;;16.20;1.00;;;;;;4994285;28;20052;-34
2023/03/28 04:39:46;;;;;;;2.15;0.28;;;16.20;1.00;;;;;;4994363;28;20046;-35
2023/03/28 04:42:27;;;;;;;0.70;0.43;;;16.20;1.00;;;;;;5011400;28;20050;-35
2023/03/28 04:45:05;;;;;;;4.85;0.20;;;16.20;1.00;;;;;;4994227;28;20045;-34
2023/03/28 04:47:36;;;;;;;0.70;0.70;;;16.20;1.00;;;;;;4994226;28;20046;-34
2023/03/28 04:50:03;;;;;;;3.50;0.50;;;16.10;1.00;;;;;;5011847;28;20391;-35
2023/03/28 04:52:35;;;;;;;1.95;0.40;;;16.10;1.00;;;;;;5026354;28;20121;-35
2023/03/28 04:55:03;;;;;;;0.60;0.20;;;16.10;1.00;;;;;;4993705;28;20042;-35
2023/03/28 04:57:31;;;;;;;2.15;0.43;;;16.10;1.00;;;;;;4994199;28;20097;-35
2023/03/28 05:00:11;;;;;;;0.50;0.15;;;16.10;1.00;;;;;;4994130;28;20064;-35
2023/03/28 05:03:00;;;;;;;3.13;0.40;;;16.00;1.00;;;;;;5011115;28;20172;-35
2023/03/28 05:05:31;;;;;;;1.10;0.20;;;16.10;1.00;;;;;;4993944;28;20056;-35
2023/03/28 05:07:58;;;;;;;5.00;0.57;;;16.00;1.00;;;;;;5026813;28;20050;-35
2023/03/28 05:10:25;;;;;;;1.10;0.20;;;16.00;1.00;;;;;;4993923;28;20050;-35
2023/03/28 05:12:57;;;;;;;4.30;0.32;;;16.00;1.00;;;;;;4995084;28;20538;-35
2023/03/28 05:15:25;;;;;;;1.17;0.35;;;16.00;1.00;;;;;;4997387;28;20053;-34
2023/03/28 05:18:12;;;;;;;2.17;0.17;;;16.00;1.00;;;;;;4995418;28;20543;-35
2023/03/28 05:20:39;;;;;;;0.88;0.28;;;16.00;1.00;;;;;;4993052;28;20564;-35
2023/03/28 05:23:06;;;;;;;1.27;0.20;;;15.90;1.00;;;;;;4999138;28;20042;-34
2023/03/28 05:25:37;;;;;;;1.35;0.43;;;15.90;1.00;;;;;;4978719;28;20073;-35
2023/03/28 05:28:04;;;;;;;2.22;0.82;;;15.90;1.00;;;;;;4996882;28;20147;-34
2023/03/28 05:30:33;;;;;;;1.63;0.47;;;15.90;1.00;;;;;;4996733;28;20085;-34
2023/03/28 05:33:00;;;;;;;3.30;0.50;;;15.90;1.00;;;;;;4996157;28;20065;-35
2023/03/28 05:35:28;;;;;;;2.53;0.50;;;15.90;1.00;;;;;;4996882;28;20053;-35
2023/03/28 05:37:56;;;;;;;2.88;0.30;;;15.80;1.00;;;;;;4996931;28;20472;-34
2023/03/28 05:40:23;;;;;;;3.80;0.65;;;15.80;1.00;;;;;;5014534;28;20042;-35
2023/03/28 05:42:50;;;;;;;1.90;0.85;;;15.80;1.00;;;;;;5013658;28;20045;-35
2023/03/28 05:45:19;;;;;;;1.35;0.30;;;15.80;1.00;;;;;;4996777;28;20180;-35
2023/03/28 05:47:55;;;;;;;2.08;0.43;;;15.80;1.00;;;;;;4996805;28;20054;-35
2023/03/28 05:50:23;;;;;;;2.75;0.20;;;15.80;1.00;;;;;;4996754;28;20046;-35
2023/03/28 05:52:54;;;;;;;2.00;0.60;;;15.80;1.00;;;;;;4995717;28;20057;-35
2023/03/28 05:55:21;;;;;;;0.90;0.20;;;15.70;1.00;;;;;;4996396;28;20048;-34
2023/03/28 05:57:48;;;;;;;2.13;0.40;;;15.70;1.00;;;;;;4996659;28;20049;-35
2023/03/28 06:00:18;;;;;;;2.42;0.30;;;15.70;1.00;;;;;;4996539;28;20096;-35
2023/03/28 06:02:50;;;;;;;0.98;0.30;;;15.70;1.00;;;;;;4995468;28;20133;-34
2023/03/28 06:05:36;;;;;;;2.70;1.30;;;15.70;1.00;;;;;;4996442;28;20140;-35
2023/03/28 06:08:10;;;;;;;3.03;0.60;;;15.70;1.00;;;;;;4996439;28;20061;-35
2023/03/28 06:10:37;;;;;;;0.98;0.40;;;15.70;1.00;;;;;;4996116;28;20529;-34
2023/03/28 06:13:33;;;;;;;0.77;0.30;;;15.70;1.00;;;;;;4999770;28;20049;-34
2023/03/28 06:16:01;;;;;;;1.08;0.40;;;15.70;1.00;;;;;;4996180;28;20460;-35
2023/03/28 06:18:31;;;;;;;1.67;0.40;;;15.70;1.00;;;;;;4996001;28;20468;-35
2023/03/28 06:20:58;;;;;;;1.20;0.40;;;15.70;1.00;;;;;;5028836;28;20080;-34
2023/03/28 06:23:25;;;;;;;1.23;0.40;;;15.70;1.00;;;;;;5012500;28;20050;-35
2023/03/28 06:25:52;;;;;;;2.33;0.50;;;15.60;1.00;;;;;;4995994;28;20050;-35
2023/03/28 06:28:20;;;;;;;1.17;0.35;;;15.60;1.00;;;;;;4995973;28;20050;-35
2023/03/28 06:31:13;;;;;;;1.80;0.60;;;15.60;1.00;;;;;;5012189;28;20050;-35
2023/03/28 06:33:41;;;;;;;0.90;0.43;;;15.60;1.00;;;;;;4995094;28;20366;-35
2023/03/28 06:36:10;;;;;;;1.85;0.50;;;15.60;1.00;;;;;;5028603;28;20042;-35
2023/03/28 06:38:37;;;;;;;2.08;0.52;;;15.60;1.00;;;;;;4995718;28;20104;-35
2023/03/28 06:41:05;;;;;;;1.08;0.57;;;15.60;1.00;;;;;;4995479;28;20464;-35
2023/03/28 06:43:33;;;;;;;0.98;0.45;;;15.60;1.00;;;;;;4994694;28;20042;-35
2023/03/28 06:46:09;;;;;;;2.72;0.50;;;15.60;1.00;;;;;;4995429;28;20073;-35
2023/03/28 06:48:41;;;;;;;2.33;0.50;;;15.60;1.00;;;;;;4995710;28;20049;-35
2023/03/28 06:51:24;;;;;;;2.15;0.40;;;15.60;1.00;;;;;;5013133;28;20050;-35
2023/03/28 06:53:50;;;;;;;5.03;0.70;;;15.60;1.00;;;;;;5012043;28;20045;-34
2023/03/28 06:56:23;;;;;;;1.10;0.40;;;15.50;1.00;;;;;;4995421;28;20048;-34
2023/03/28 06:58:50;;;;;;;3.00;0.88;;;15.50;1.00;;;;;;4995297;28;20042;-35
2023/03/28 07:01:21;;;;;;;1.90;0.57;;;15.50;1.00;;;;;;4995396;28;20073;-35
2023/03/28 07:03:53;;;;;;;0.80;0.40;;;15.50;1.00;;;;;;4994344;28;20417;-34
2023/03/28 07:06:24;;;;;;;2.60;0.40;;;15.50;1.00;;;;;;4995126;28;20050;-34
2023/03/28 07:08:55;;;;;;;4.88;0.77;;;15.50;1.00;;;;;;4995198;28;20049;-34
2023/03/28 07:11:29;;;;;;;1.02;0.45;;;15.50;1.00;;;;;;4995202;28;20056;-36
2023/03/28 07:13:57;;;;;;;1.25;0.55;;;15.50;1.00;;;;;;4994575;28;20076;-35
2023/03/28 07:16:24;;;;;;;1.23;0.55;;;15.50;1.00;;;;;;4995289;28;20049;-35
2023/03/28 07:18:51;;;;;;;2.05;0.50;;;15.50;1.00;;;;;;5012570;28;20046;-35
2023/03/28 07:21:21;;;;;;;2.20;1.00;;;15.50;1.00;;;;;;4995013;28;20065;-35
2023/03/28 07:23:48;;;;;;;2.28;0.50;;;15.40;1.00;;;;;;4994134;28;20046;-35
2023/03/28 07:26:19;;;;;;;2.90;0.93;;;15.40;1.00;;;;;;4995050;28;20053;-35
2023/03/28 07:28:46;;;;;;;3.33;0.82;;;15.40;1.00;;;;;;4994891;28;20061;-35
2023/03/28 07:31:13;;;;;;;5.28;0.77;;;15.40;1.00;;;;;;4994614;28;20679;-35
2023/03/28 07:33:40;;;;;;;2.47;0.40;;;15.40;1.00;;;;;;5026793;28;20103;-34
2023/03/28 07:36:14;;;;;;;1.88;0.57;;;15.40;1.00;;;;;;4994159;28;20046;-35
2023/03/28 07:38:43;;;;;;;1.60;0.63;;;15.40;1.00;;;;;;4994844;28;20532;-35
2023/03/28 07:41:14;;;;;;;2.60;0.77;;;15.40;1.00;;;;;;4994763;28;20077;-35
2023/03/28 07:43:41;;;;;;;2.00;0.70;;;15.40;1.00;;;;;;4993722;28;20045;-35
2023/03/28 07:46:10;;;;;;;3.05;0.30;;;15.40;1.00;;;;;;5012214;28;20462;-35
2023/03/28 07:48:39;;;;;;;1.73;0.63;;;15.40;1.00;;;;;;4994754;28;20042;-35
2023/03/28 07:51:08;;;;;;;2.20;0.70;;;15.40;1.00;;;;;;4994463;28;20046;-35
2023/03/28 07:53:39;;;;;;;1.80;0.65;;;15.40;1.00;;;;;;4993653;28;20400;-34
2023/03/28 07:56:10;;;;;;;2.45;1.00;;;15.40;1.00;;;;;;5027210;28;20472;-35
2023/03/28 07:58:54;;;;;;;1.23;0.50;;;15.40;1.00;;;;;;4994363;28;20534;-34
2023/03/28 08:01:21;;;;;;;2.22;0.52;;;15.40;1.00;;;;;;4994513;28;20042;-35
2023/03/28 08:03:52;;;;;;;2.25;0.38;;;15.40;1.00;;;;;;4993661;28;20078;-35
2023/03/28 08:06:21;;;;;;;1.77;0.65;;;15.40;1.00;;;;;;4994460;28;20042;-35
2023/03/28 08:08:59;;;;;;;1.65;0.60;;;15.30;1.00;;;;;;4994445;28;20041;-35
2023/03/28 08:11:47;;;;;;;1.75;1.15;;;15.30;1.00;;;;;;5011545;28;20046;-35
2023/03/28 08:14:17;;;;;;;2.50;0.63;;;15.30;1.00;;;;;;4993556;28;20077;-34
2023/03/28 08:16:45;;;;;;;3.08;1.02;;;15.30;1.00;;;;;;4994404;28;20092;-34
2023/03/28 08:19:12;;;;;;;1.88;0.70;;;15.30;1.00;;;;;;5026907;28;20137;-35
2023/03/28 08:22:01;;;;;;;3.10;0.40;;;15.30;1.00;;;;;;5011802;28;20058;-35
2023/03/28 08:24:30;;;;;;;2.38;0.60;;;15.30;1.00;;;;;;4993621;28;20049;-35
2023/03/28 08:27:11;;;;;;;2.38;0.75;;;15.30;1.00;;;;;;4994149;28;20100;-35
2023/03/28 08:29:39;;;;;;;2.08;0.70;;;15.30;1.00;;;;;;4994052;28;20145;-34
2023/03/28 08:32:06;;;;;;;1.77;0.45;;;15.30;1.00;;;;;;4994159;28;20042;-35
2023/03/28 08:34:33;;;;;;;2.53;0.65;;;15.30;1.00;;;;;;4993645;28;20068;-35
2023/03/28 08:37:05;;;;;;;1.05;0.40;;;15.30;1.00;;;;;;4994158;28;20549;-35
2023/03/28 08:39:33;;;;;;;1.98;0.75;;;15.30;1.00;;;;;;4994103;28;20045;-34
2023/03/28 08:42:09;;;;;;;1.20;0.60;;;15.30;1.00;;;;;;4994064;28;20510;-34
2023/03/28 08:44:54;;;;;;;3.15;0.60;;;15.30;1.00;;;;;;4993463;28;20050;-35
2023/03/28 08:47:25;;;;;;;1.85;0.60;;;15.30;1.00;;;;;;4996954;28;20100;-35
2023/03/28 08:49:58;;;;;;;4.15;0.70;;;15.30;1.00;;;;;;4997888;28;20084;-35
2023/03/28 08:52:26;;;;;;;3.10;0.95;;;15.30;1.00;;;;;;4997051;28;20065;-35
2023/03/28 08:55:20;;;;;;;1.05;0.68;;;15.30;1.00;;;;;;4997227;28;20476;-35
2023/03/28 08:57:55;;;;;;;;;;;15.30;1.00;;;;;;5015759;28;20485;-35
2023/03/28 09:00:40;;;;;;;1.23;0.70;;;15.30;1.00;;;;;;5014901;28;19922;-35
2023/03/28 09:03:24;;;;;;;2.08;0.73;;;15.30;1.00;;;;;;5011243;28;20111;-35
2023/03/28 09:06:26;;;;;;;0.98;0.38;;;15.30;1.00;;;;;;5030335;28;20042;-35
2023/03/28 09:09:37;;;;;;;2.15;1.08;;;15.30;1.00;;;;;;4997442;28;20409;-35
2023/03/28 09:12:57;;;;;;;1.80;0.57;;;15.30;1.00;;;;;;4996854;28;20046;-35
2023/03/28 09:16:07;;;;;;;2.15;0.50;;;15.30;1.00;;;;;;5030105;28;20029;-34
2023/03/28 09:19:02;;;;;;;1.08;0.60;;;15.30;1.00;;;;;;4997541;28;20057;-35
2023/03/28 09:21:58;;;;;;;1.77;0.47;;;15.30;1.00;;;;;;4997210;28;20112;-35
2023/03/28 09:24:54;;;;;;;1.98;0.50;;;15.30;1.00;;;;;;4996905;28;20078;-35
2023/03/28 09:27:34;;;;;;;1.17;0.63;;;15.40;1.00;;;;;;5029967;28;20038;-35
2023/03/28 09:30:22;;;;;;;3.00;0.45;;;15.40;1.00;;;;;;4996970;28;20152;-35
2023/03/28 09:32:54;;;;;;;3.15;0.47;;;15.40;1.00;;;;;;5028781;28;20045;-35
2023/03/28 09:35:24;;;;;;;0.75;0.40;;;15.40;1.00;;;;;;5014593;28;20085;-35
2023/03/28 09:37:55;;;;;;;2.83;0.52;;;15.40;1.00;;;;;;5029867;28;20069;-35
2023/03/28 09:40:34;;;;;;;2.17;0.50;;;15.40;1.00;;;;;;4996857;28;20042;-35
2023/03/28 09:44:28;;;;;;;2.15;0.70;;;15.40;1.00;;;;;;4980320;28;20038;-35
2023/03/28 09:47:48;;;;;;;4.05;0.88;;;15.50;1.00;;;;;;5014233;28;20453;-35
2023/03/28 09:50:20;;;;;;;1.35;0.40;;;15.40;1.00;;;;;;4996743;28;20417;-34
2023/03/28 09:52:54;;;;;;;1.25;0.40;;;15.50;1.00;;;;;;5032311;23;20049;-33
2023/03/28 09:55:24;;;;;;;2.00;0.80;;;15.50;1.00;;;;;;5016100;28;20053;-33
2023/03/28 09:58:06;;;;;;;1.77;0.40;;;15.50;1.00;;;;;;5015466;28;20087;-33
2023/03/28 10:00:54;;;;;;;2.78;0.57;;;15.50;1.00;;;;;;5033797;28;20049;-33
2023/03/28 10:03:51;;;;;;;2.80;0.73;;;15.50;1.00;;;;;;5033036;28;20123;-33
2023/03/28 10:06:27;;;;;;;2.65;1.15;;;15.50;1.00;;;;;;5016053;28;20076;-33
2023/03/28 10:09:12;;;;;;;;;;;15.50;1.00;;;;;;5016342;28;20137;-33
2023/03/28 10:12:03;;;;;;;5.40;1.45;;;15.50;1.00;;;;;;5032355;28;19975;-33
2023/03/28 10:14:41;;;;;;;2.60;0.57;;;15.40;1.00;;;;;;5015209;28;20042;-33
2023/03/28 10:17:34;;;;;;;2.30;0.85;;;15.40;1.00;;;;;;5015756;28;20060;-34
2023/03/28 10:20:20;;;;;;;2.33;0.55;;;15.50;1.00;;;;;;5015797;28;20045;-34
2023/03/28 10:22:53;;;;;;;1.52;0.47;;;15.50;1.00;;;;;;5014928;28;20049;-34
2023/03/28 10:25:49;;;;;;;4.15;1.33;;;15.50;1.00;;;;;;5015685;28;20050;-34
2023/03/28 10:28:35;;;;;;;1.15;0.60;;;15.50;1.00;;;;;;5029907;28;20080;-34
2023/03/28 10:31:03;;;;;;;1.92;0.70;;;15.50;1.00;;;;;;5033474;28;20477;-34
2023/03/28 10:33:41;;;;;;;6.13;0.60;;;15.50;1.00;;;;;;5014629;28;20069;-34
2023/03/28 10:36:27;;;;;;;1.00;0.50;;;15.50;1.00;;;;;;5015451;28;20045;-34
2023/03/28 10:38:56;;;;;;;1.67;0.60;;;15.50;1.00;;;;;;5015358;28;20103;-34
2023/03/28 10:42:00;;;;;;;5.43;0.47;;;15.50;1.00;;;;;;5028250;28;20444;-34
2023/03/28 10:44:58;;;;;;;2.63;0.50;;;15.50;1.00;;;;;;5015047;28;20053;-34
2023/03/28 10:47:29;;;;;;;2.33;0.60;;;15.50;1.00;;;;;;5015278;28;20138;-34
2023/03/28 10:50:29;;;;;;;1.20;0.70;;;15.50;1.00;;;;;;5015263;28;20041;-34
2023/03/28 10:53:19;;;;;;;3.22;0.95;;;15.50;1.00;;;;;;4998119;28;20104;-34
2023/03/28 10:56:19;;;;;;;1.50;0.60;;;15.50;1.00;;;;;;5014940;28;20045;-35
2023/03/28 10:59:16;;;;;;;3.95;0.77;;;15.50;1.00;;;;;;5015053;28;20050;-34
2023/03/28 11:01:52;;;;;;;1.63;0.60;;;15.50;1.00;;;;;;5015061;28;20045;-34
2023/03/28 11:04:33;;;;;;;2.60;0.75;;;15.50;1.00;;;;;;5014244;28;20052;-34
2023/03/28 11:07:05;;;;;;;1.77;0.50;;;15.50;1.00;;;;;;5015031;28;20048;-34
2023/03/28 11:10:21;;;;;;;3.40;0.47;;;15.50;1.00;;;;;;5026875;28;20053;-34
2023/03/28 11:13:30;;;;;;;3.92;0.55;;;15.50;1.00;;;;;;5020332;28;20056;-34
2023/03/28 11:16:16;;;;;;;2.30;0.55;;;15.50;1.00;;;;;;5014815;28;20394;-34
2023/03/28 11:19:12;;;;;;;4.13;1.15;;;15.50;1.00;;;;;;5014769;28;20068;-34
2023/03/28 11:22:23;;;;;;;5.05;1.40;;;15.50;1.00;;;;;;5014598;28;20115;-34
2023/03/28 11:24:56;;;;;;;2.35;0.95;;;15.50;1.00;;;;;;5014229;28;20045;-34
2023/03/28 11:27:53;;;;;;;0.88;0.38;;;15.50;1.00;;;;;;5017798;28;20138;-34
2023/03/28 11:30:32;;;;;;;2.92;0.55;;;15.50;1.00;;;;;;5014537;28;20050;-34
2023/03/28 11:33:37;;;;;;;2.72;0.80;;;15.50;1.00;;;;;;5013732;28;20053;-34
2023/03/28 11:36:14;;;;;;;;;;;15.50;1.00;;;;;;5014886;28;20548;-34
2023/03/28 11:39:25;;;;;;;3.03;0.60;;;15.50;1.00;;;;;;5014697;28;20347;-34
2023/03/28 11:42:40;;;;;;;3.83;0.80;;;15.50;1.00;;;;;;4936634;28;20423;-35
2023/03/28 11:45:11;;;;;;;4.55;0.60;;;15.50;1.00;;;;;;4987631;28;20045;-34
2023/03/28 11:48:18;;;;;;;5.95;0.82;;;15.50;1.00;;;;;;5032199;28;20116;-34
2023/03/28 11:51:19;;;;;;;3.80;0.77;;;15.50;1.00;;;;;;5014181;28;20072;-34
2023/03/28 11:55:09;;;;;;;4.90;0.80;;;15.50;1.00;;;;;;5012443;28;20057;-34
2023/03/28 11:58:43;;;;;;;2.90;1.17;;;15.50;1.00;;;;;;5009024;28;20513;-34
2023/03/28 12:01:19;;;;;;;1.83;0.60;;;15.50;1.00;;;;;;5013902;28;20065;-34
2023/03/28 12:04:20;;;;;;;3.58;0.40;;;15.50;1.00;;;;;;5031007;28;20045;-34
2023/03/28 12:06:58;;;;;;;2.10;0.80;;;15.50;1.00;;;;;;5013911;28;20053;-34
2023/03/28 12:09:49;;;;;;;0.95;0.60;;;15.50;1.00;;;;;;5013990;28;20504;-34
2023/03/28 12:12:24;;;;;;;2.63;0.80;;;15.50;1.00;;;;;;5013612;28;20473;-34
2023/03/28 12:15:11;;;;;;;2.53;0.98;;;15.50;1.00;;;;;;5013568;28;20049;-34
2023/03/28 12:17:54;;;;;;;2.50;0.98;;;15.50;1.00;;;;;;5013923;28;20057;-34
2023/03/28 12:20:41;;;;;;;1.67;1.03;;;15.50;1.00;;;;;;5013965;28;20045;-34
2023/03/28 12:23:26;;;;;;;3.00;0.90;;;15.50;1.00;;;;;;5017185;28;20045;-34
2023/03/28 12:26:35;;;;;;;4.28;1.05;;;15.50;1.00;;;;;;5036413;28;20056;-34
2023/03/28 12:29:17;;;;;;;4.10;1.27;;;15.50;1.00;;;;;;5035803;28;20064;-34
2023/03/28 12:31:52;;;;;;;2.00;0.60;;;15.50;1.00;;;;;;5018036;28;20148;-35
2023/03/28 12:34:44;;;;;;;2.85;0.65;;;15.50;1.00;;;;;;5016960;28;20152;-34
2023/03/28 12:38:15;;;;;;;2.80;0.80;;;15.50;1.00;;;;;;5035286;28;20041;-34
2023/03/28 12:41:28;;;;;;;3.17;0.82;;;15.50;1.00;;;;;;5017567;28;20037;-35
2023/03/28 12:44:28;;;;;;;1.17;1.00;;;15.50;1.00;;;;;;5016641;28;20052;-34
2023/03/28 12:47:04;;;;;;;8.63;1.02;;;15.40;1.00;;;;;;5001480;28;20056;-34
2023/03/28 12:49:57;;;;;;;2.78;0.65;;;15.40;1.00;;;;;;5017347;28;20096;-34
2023/03/28 12:52:51;;;;;;;3.85;1.33;;;15.40;1.00;;;;;;5016013;28;20045;-34
2023/03/28 12:56:10;;;;;;;6.40;0.90;;;15.40;1.00;;;;;;5017061;28;20382;-34
2023/03/28 12:58:40;;;;;;;3.17;0.80;;;15.40;1.00;;;;;;5025061;28;20057;-34
2023/03/28 13:01:25;;;;;;;3.90;0.93;;;15.40;1.00;;;;;;5017152;28;20053;-34
2023/03/28 13:04:56;;;;;;;2.30;0.73;;;15.50;1.00;;;;;;5033049;28;20045;-34
2023/03/28 13:07:51;;;;;;;3.72;0.98;;;15.50;1.00;;;;;;5016896;28;20057;-34
2023/03/28 13:10:46;;;;;;;4.45;1.05;;;15.50;1.00;;;;;;5034776;28;20472;-34
2023/03/28 13:13:24;;;;;;;3.65;1.13;;;15.50;1.00;;;;;;5033852;28;20493;-34
2023/03/28 13:16:05;;;;;;;4.13;0.70;;;15.50;1.00;;;;;;5034599;28;20042;-34
2023/03/28 13:18:33;;;;;;;2.83;0.70;;;15.50;1.00;;;;;;5034670;28;20378;-34
2023/03/28 13:21:03;;;;;;;4.65;0.95;;;15.50;1.00;;;;;;5034904;28;20499;-34
2023/03/28 13:23:36;;;;;;;1.83;0.65;;;15.50;1.00;;;;;;5033608;28;20049;-34
2023/03/28 13:26:05;;;;;;;2.40;0.70;;;15.50;1.00;;;;;;5034689;28;20046;-34
2023/03/28 13:28:49;;;;;;;3.78;0.70;;;15.50;1.00;;;;;;5034635;28;20124;-34
2023/03/28 13:31:25;;;;;;;1.85;0.80;;;15.50;1.00;;;;;;5034564;28;20548;-34
2023/03/28 13:34:01;;;;;;;3.30;0.95;;;15.50;1.00;;;;;;5014644;28;20053;-34
2023/03/28 13:36:32;;;;;;;2.65;0.73;;;15.50;1.00;;;;;;5034547;28;20536;-34
2023/03/28 13:39:20;;;;;;;3.70;0.50;;;15.50;1.00;;;;;;5034447;28;20048;-34
2023/03/28 13:41:47;;;;;;;2.67;0.70;;;15.40;1.00;;;;;;5034306;28;20045;-34
2023/03/28 13:44:15;;;;;;;1.75;0.50;;;15.40;1.00;;;;;;5033461;28;20045;-34
2023/03/28 13:46:45;;;;;;;1.65;1.10;;;15.40;1.00;;;;;;5034143;28;20053;-34
2023/03/28 13:49:20;;;;;;;3.85;0.70;;;15.40;1.00;;;;;;5034004;28;20196;-34
2023/03/28 13:52:06;;;;;;;2.42;0.80;;;15.40;1.00;;;;;;5034017;28;20042;-34
2023/03/28 13:54:33;;;;;;;1.65;0.50;;;15.40;1.00;;;;;;5033168;28;20045;-34
2023/03/28 13:57:05;;;;;;;2.55;0.57;;;15.40;1.00;;;;;;5033990;28;20095;-34
2023/03/28 13:59:39;;;;;;;2.65;0.73;;;15.40;1.00;;;;;;5033785;28;20041;-34
2023/03/28 14:02:39;;;;;;;2.95;1.08;;;15.40;1.00;;;;;;5033915;28;20515;-34